Time;durP1;ratioP1;P1;durP2;ratioP2;P2;SDS_P1;SDS_P2;PMS_P1;PMS_P2;Temp;Humidity;BMP_temperature;BMP_pressure;BME280_temperature;BME280_humidity;BME280_pressure;Samples;Min_cycle;Max_cycle;Signal;HPM_P1;HPM_P2
2023/01/11 00:01:01;;;;;;;5.10;1.50;;;18.30;74.20;;;;;;5013649;28;20075;-75
2023/01/11 00:03:27;;;;;;;2.25;1.10;;;18.30;74.40;;;;;;5012126;28;20136;-75
2023/01/11 00:05:54;;;;;;;5.22;1.60;;;18.30;74.40;;;;;;5012172;28;20100;-75
2023/01/11 00:08:21;;;;;;;3.55;0.93;;;18.30;74.50;;;;;;5012267;28;20045;-74
2023/01/11 00:10:46;;;;;;;5.63;1.30;;;18.20;74.60;;;;;;5013499;28;20022;-74
2023/01/11 00:13:13;;;;;;;2.30;1.10;;;18.20;74.60;;;;;;5013376;28;20029;-74
2023/01/11 00:15:39;;;;;;;5.63;1.20;;;18.20;74.70;;;;;;5012179;28;20105;-74
2023/01/11 00:18:04;;;;;;;2.15;0.80;;;18.20;74.80;;;;;;5012057;28;20045;-74
2023/01/11 00:20:30;;;;;;;3.85;1.38;;;18.20;74.90;;;;;;5013142;28;20427;-74
2023/01/11 00:22:56;;;;;;;2.80;1.20;;;18.10;74.90;;;;;;5012072;28;20420;-74
2023/01/11 00:25:22;;;;;;;6.15;1.52;;;18.10;74.90;;;;;;5012020;28;20376;-74
2023/01/11 00:27:48;;;;;;;3.63;1.15;;;18.10;76.10;;;;;;5012022;28;20400;-74
2023/01/11 00:30:14;;;;;;;3.90;1.10;;;18.10;75.10;;;;;;5013314;28;20030;-74
2023/01/11 00:32:40;;;;;;;4.72;1.17;;;18.00;75.10;;;;;;5025709;28;20039;-74
2023/01/11 00:35:07;;;;;;;3.92;0.90;;;18.00;75.20;;;;;;5015347;28;20033;-75
2023/01/11 00:37:32;;;;;;;5.47;1.38;;;18.00;75.30;;;;;;5032805;28;20025;-75
2023/01/11 00:39:58;;;;;;;1.80;0.80;;;18.00;75.30;;;;;;5032621;28;20030;-74
2023/01/11 00:48:03;;;;;;;2.80;0.90;;;17.90;75.60;;;;;;5032681;28;20060;-74
2023/01/11 00:50:30;;;;;;;6.47;0.93;;;17.90;75.60;;;;;;5032819;28;20112;-75
2023/01/11 00:52:57;;;;;;;4.15;1.00;;;17.90;75.60;;;;;;5031418;28;20060;-75
2023/01/11 00:55:22;;;;;;;3.58;1.10;;;17.80;75.60;;;;;;5031567;28;20112;-74
2023/01/11 00:57:48;;;;;;;3.15;1.10;;;17.80;75.80;;;;;;5031512;28;20105;-75
2023/01/11 01:00:15;;;;;;;3.63;0.88;;;17.80;75.70;;;;;;5031574;28;20029;-75
2023/01/11 01:02:40;;;;;;;3.03;0.82;;;17.80;75.80;;;;;;5031202;28;20052;-74
2023/01/11 01:05:06;;;;;;;4.13;1.20;;;17.70;75.70;;;;;;5031338;28;20029;-74
2023/01/11 01:07:32;;;;;;;6.82;2.05;;;17.70;75.80;;;;;;5033724;28;20415;-74
2023/01/11 01:09:58;;;;;;;3.28;1.02;;;17.70;75.90;;;;;;5036701;28;20025;-74
2023/01/11 01:15:08;;;;;;;5.80;1.50;;;17.70;76.00;;;;;;5036526;28;20072;-75
2023/01/11 01:17:33;;;;;;;7.72;1.42;;;17.70;77.10;;;;;;5036284;28;20112;-74
2023/01/11 01:19:59;;;;;;;4.20;0.95;;;17.60;75.20;;;;;;5034650;28;20559;-74
2023/01/11 01:22:25;;;;;;;2.28;1.00;;;17.60;76.20;;;;;;5036168;28;20104;-74
2023/01/11 01:24:50;;;;;;;3.85;1.33;;;17.60;76.30;;;;;;5036457;28;20017;-74
2023/01/11 01:27:18;;;;;;;3.42;1.35;;;17.60;76.30;;;;;;5035113;28;20025;-74
2023/01/11 01:29:44;;;;;;;2.67;0.82;;;17.50;76.30;;;;;;5036100;28;20032;-74
2023/01/11 01:32:10;;;;;;;4.13;0.98;;;17.60;76.50;;;;;;5035763;28;20021;-74
2023/01/11 01:34:36;;;;;;;3.58;1.15;;;17.50;76.40;;;;;;5034967;28;20036;-74
2023/01/11 01:37:05;;;;;;;3.55;1.05;;;17.50;76.40;;;;;;5034917;28;20021;-74
2023/01/11 01:39:31;;;;;;;3.90;0.90;;;17.50;76.50;;;;;;5035682;28;20492;-74
2023/01/11 01:41:56;;;;;;;3.38;0.80;;;17.50;76.50;;;;;;5035816;28;20021;-74
2023/01/11 01:44:53;;;;;;;5.43;1.13;;;17.50;76.60;;;;;;5034695;28;20040;-74
2023/01/11 01:47:23;;;;;;;3.90;1.08;;;17.40;76.40;;;;;;5035572;28;20025;-74
2023/01/11 01:49:49;;;;;;;3.63;1.27;;;17.40;76.50;;;;;;5034333;28;20025;-74
2023/01/11 01:52:15;;;;;;;5.00;1.33;;;17.40;76.50;;;;;;5035393;28;20071;-75
2023/01/11 01:54:42;;;;;;;5.20;1.45;;;17.40;76.50;;;;;;5034299;28;20112;-75
2023/01/11 01:57:20;;;;;;;4.28;1.05;;;17.40;76.70;;;;;;5034486;28;20021;-74
2023/01/11 01:59:50;;;;;;;4.43;1.27;;;17.40;76.60;;;;;;5034108;28;20040;-74
2023/01/11 02:02:19;;;;;;;3.08;1.05;;;17.30;76.80;;;;;;5033839;28;20030;-74
2023/01/11 02:04:44;;;;;;;2.40;0.90;;;17.30;76.70;;;;;;5034330;28;20026;-75
2023/01/11 02:07:15;;;;;;;3.30;1.23;;;17.30;76.70;;;;;;5034143;28;20017;-75
2023/01/11 02:09:50;;;;;;;4.25;1.00;;;17.30;76.80;;;;;;5033963;28;20416;-75
2023/01/11 02:12:16;;;;;;;4.07;1.08;;;17.30;76.80;;;;;;5033986;28;20026;-75
2023/01/11 02:14:41;;;;;;;4.72;1.10;;;17.30;76.80;;;;;;5034014;28;20029;-75
2023/01/11 02:17:08;;;;;;;3.83;1.30;;;17.30;76.80;;;;;;5033834;28;20156;-75
2023/01/11 02:19:55;;;;;;;4.05;1.05;;;17.20;76.80;;;;;;5032726;28;20374;-75
2023/01/11 02:22:48;;;;;;;5.18;1.13;;;17.20;76.80;;;;;;5035263;28;20026;-75
2023/01/11 02:25:20;;;;;;;2.30;0.90;;;17.20;76.90;;;;;;5035037;28;20022;-75
2023/01/11 02:28:06;;;;;;;3.90;1.15;;;17.20;76.90;;;;;;5035024;28;20018;-75
2023/01/11 02:30:33;;;;;;;4.05;1.00;;;17.20;77.00;;;;;;5033676;28;20079;-75
2023/01/11 02:33:02;;;;;;;3.05;0.90;;;17.20;77.10;;;;;;5033439;28;20515;-75
2023/01/11 02:35:35;;;;;;;5.03;1.52;;;17.20;77.10;;;;;;5034867;28;20070;-75
2023/01/11 02:38:38;;;;;;;3.78;1.00;;;17.20;77.30;;;;;;5033642;28;20043;-74
2023/01/11 02:41:17;;;;;;;;;;;17.10;77.20;;;;;;5015184;28;20611;-75
2023/01/11 02:46:56;;;;;;;5.70;1.55;;;17.10;77.30;;;;;;4985585;28;20069;-75
2023/01/11 02:49:32;;;;;;;7.15;1.50;;;17.10;77.40;;;;;;5012550;28;20048;-75
2023/01/11 02:52:04;;;;;;;4.43;1.25;;;17.10;77.40;;;;;;4996209;28;20510;-75
2023/01/11 02:54:30;;;;;;;4.32;1.30;;;17.10;77.50;;;;;;4996296;28;20061;-75
2023/01/11 02:56:57;;;;;;;4.32;1.17;;;17.10;77.50;;;;;;4980103;28;20068;-74
2023/01/11 02:59:30;;;;;;;4.68;1.13;;;17.10;77.50;;;;;;4979712;28;20038;-74
2023/01/11 03:01:56;;;;;;;2.58;0.77;;;17.00;77.50;;;;;;4996155;28;20132;-74
2023/01/11 03:04:34;;;;;;;4.32;1.25;;;17.00;77.60;;;;;;4995786;28;20037;-74
2023/01/11 03:07:34;;;;;;;5.88;1.40;;;17.00;77.60;;;;;;5012003;28;20419;-74
2023/01/11 03:10:37;;;;;;;4.80;1.00;;;17.00;77.60;;;;;;5012514;28;20492;-74
2023/01/11 03:13:18;;;;;;;5.10;1.45;;;17.00;77.60;;;;;;4992669;28;20125;-74
2023/01/11 03:16:17;;;;;;;3.95;0.93;;;17.00;77.70;;;;;;4992340;28;20042;-74
2023/01/11 03:18:43;;;;;;;4.53;1.27;;;16.90;77.70;;;;;;5009271;28;20064;-74
2023/01/11 03:21:16;;;;;;;4.30;0.90;;;16.90;77.70;;;;;;5012240;28;20524;-74
2023/01/11 03:24:02;;;;;;;3.67;0.75;;;16.90;77.80;;;;;;4995875;28;20115;-74
2023/01/11 03:26:45;;;;;;;2.53;0.90;;;16.90;77.80;;;;;;5012023;28;20037;-74
2023/01/11 03:29:24;;;;;;;6.05;1.05;;;16.90;77.70;;;;;;4995237;28;20114;-74
2023/01/11 03:32:07;;;;;;;3.65;0.90;;;16.90;77.80;;;;;;4995336;28;20026;-74
2023/01/11 03:34:47;;;;;;;;;;;16.90;77.80;;;;;;4995959;28;20065;-74
2023/01/11 03:37:19;;;;;;;4.32;1.10;;;16.90;77.80;;;;;;5011966;28;19905;-74
2023/01/11 03:40:02;;;;;;;3.28;0.80;;;16.80;77.80;;;;;;4995253;28;20121;-74
2023/01/11 03:42:28;;;;;;;4.75;1.20;;;16.80;77.80;;;;;;4995865;28;20037;-74
2023/01/11 03:44:54;;;;;;;2.25;0.90;;;16.80;77.80;;;;;;4995112;28;20037;-74
2023/01/11 03:47:22;;;;;;;3.10;1.08;;;16.80;77.90;;;;;;4995232;28;20031;-74
2023/01/11 03:49:52;;;;;;;4.57;1.45;;;16.80;77.80;;;;;;5027978;28;20054;-74
2023/01/11 03:52:20;;;;;;;3.72;1.13;;;16.80;77.90;;;;;;5031939;28;20049;-74
2023/01/11 03:54:46;;;;;;;5.05;1.17;;;16.80;77.80;;;;;;5032292;28;20013;-74
2023/01/11 03:57:27;;;;;;;3.72;1.10;;;16.70;77.80;;;;;;5032018;28;20393;-75
2023/01/11 03:59:53;;;;;;;3.35;0.95;;;16.80;77.90;;;;;;5032167;28;20065;-75
2023/01/11 04:02:25;;;;;;;6.00;1.20;;;16.80;77.90;;;;;;5031651;28;20081;-74
2023/01/11 04:04:50;;;;;;;5.22;1.00;;;16.70;77.90;;;;;;5032265;28;20021;-74
2023/01/11 04:07:17;;;;;;;5.15;1.48;;;16.70;77.90;;;;;;5031713;28;20454;-74
2023/01/11 04:09:43;;;;;;;4.10;1.08;;;16.70;77.90;;;;;;5033108;28;20472;-75
2023/01/11 04:12:09;;;;;;;4.63;1.48;;;16.70;77.90;;;;;;5032902;28;20036;-75
2023/01/11 04:14:34;;;;;;;3.72;1.40;;;16.70;78.00;;;;;;5033132;28;20025;-75
2023/01/11 04:17:00;;;;;;;7.47;1.10;;;16.70;78.10;;;;;;5033078;28;20029;-75
2023/01/11 04:19:25;;;;;;;3.35;1.13;;;16.70;78.10;;;;;;5030447;28;20450;-75
2023/01/11 04:21:51;;;;;;;5.68;1.08;;;16.70;78.00;;;;;;5032535;28;20033;-75
2023/01/11 04:24:17;;;;;;;3.30;0.93;;;16.70;78.10;;;;;;5032325;28;20017;-75
2023/01/11 04:26:43;;;;;;;2.80;0.93;;;16.70;78.10;;;;;;5031255;28;20446;-75
2023/01/11 04:29:09;;;;;;;2.88;1.02;;;16.60;78.00;;;;;;5031312;28;20022;-75
2023/01/11 04:31:34;;;;;;;5.60;1.70;;;16.60;78.00;;;;;;5030766;28;20025;-74
2023/01/11 04:34:00;;;;;;;2.33;0.80;;;16.60;78.10;;;;;;5032453;28;20083;-74
2023/01/11 04:36:27;;;;;;;5.68;1.10;;;16.60;78.10;;;;;;5031139;28;20060;-74
2023/01/11 04:38:53;;;;;;;3.92;1.13;;;16.60;78.10;;;;;;5032386;28;20111;-75
2023/01/11 04:44:03;;;;;;;3.13;1.10;;;16.60;78.10;;;;;;5015459;28;20069;-75
2023/01/11 04:46:28;;;;;;;2.92;1.02;;;16.60;78.20;;;;;;5016507;28;20026;-74
2023/01/11 04:48:55;;;;;;;6.30;1.10;;;16.50;78.10;;;;;;5016585;28;20068;-74
2023/01/11 04:51:20;;;;;;;2.53;0.75;;;16.50;78.10;;;;;;5016483;28;20029;-74
2023/01/11 04:53:47;;;;;;;5.95;1.33;;;16.50;78.10;;;;;;5015397;28;20026;-74
2023/01/11 04:56:13;;;;;;;3.95;0.98;;;16.50;78.10;;;;;;5014954;28;20525;-74
2023/01/11 04:58:39;;;;;;;4.07;0.98;;;16.50;79.10;;;;;;4998802;28;20029;-74
2023/01/11 05:01:13;;;;;;;2.90;1.00;;;16.50;78.00;;;;;;5016108;28;20037;-74
2023/01/11 05:03:39;;;;;;;3.67;1.23;;;16.50;78.20;;;;;;5014882;28;20404;-74
2023/01/11 05:06:05;;;;;;;3.13;0.80;;;16.50;78.20;;;;;;5016154;28;20092;-74
2023/01/11 05:08:30;;;;;;;3.17;1.00;;;16.50;78.10;;;;;;5016181;28;20018;-74
2023/01/11 05:10:58;;;;;;;4.50;1.08;;;16.50;78.10;;;;;;5014629;28;20033;-74
2023/01/11 05:13:42;;;;;;;3.15;1.10;;;16.50;78.10;;;;;;5014623;28;20026;-75
2023/01/11 05:16:13;;;;;;;3.03;1.10;;;16.50;78.10;;;;;;5015141;28;20104;-75
2023/01/11 05:18:40;;;;;;;4.18;1.40;;;16.50;78.30;;;;;;5015952;28;20076;-75
2023/01/11 05:21:06;;;;;;;4.45;0.95;;;16.40;78.30;;;;;;5014968;28;20104;-75
2023/01/11 05:23:34;;;;;;;2.88;0.82;;;16.40;78.20;;;;;;5014531;28;20484;-75
2023/01/11 05:26:04;;;;;;;6.07;1.25;;;16.40;78.30;;;;;;5015704;28;20021;-75
2023/01/11 05:28:29;;;;;;;4.93;0.95;;;16.40;78.20;;;;;;5014684;28;20026;-75
2023/01/11 05:30:55;;;;;;;4.53;0.90;;;16.40;78.30;;;;;;5015649;28;20084;-75
2023/01/11 05:33:21;;;;;;;3.78;0.98;;;16.40;78.30;;;;;;5035034;28;20103;-75
2023/01/11 05:35:46;;;;;;;2.35;0.90;;;16.40;78.30;;;;;;5034158;28;20554;-75
2023/01/11 05:38:12;;;;;;;3.45;0.70;;;16.40;78.20;;;;;;5035522;28;20030;-75
2023/01/11 05:40:37;;;;;;;4.38;0.80;;;16.40;78.20;;;;;;5019740;28;20040;-75
2023/01/11 05:43:03;;;;;;;3.53;1.13;;;16.40;78.30;;;;;;5014375;28;20029;-75
2023/01/11 05:45:30;;;;;;;3.70;1.20;;;16.30;78.20;;;;;;5014197;28;20026;-75
2023/01/11 05:47:56;;;;;;;2.80;1.05;;;16.30;78.20;;;;;;5015544;28;20396;-75
2023/01/11 05:50:22;;;;;;;2.05;0.85;;;16.30;78.30;;;;;;5014148;28;20026;-75
2023/01/11 05:52:48;;;;;;;1.50;0.70;;;16.30;78.30;;;;;;5015334;28;20603;-75
2023/01/11 05:55:14;;;;;;;2.47;0.85;;;16.30;78.30;;;;;;5013753;28;20041;-75
2023/01/11 05:57:43;;;;;;;4.25;1.00;;;16.30;78.30;;;;;;5015277;28;20365;-75
2023/01/11 06:00:09;;;;;;;3.30;0.98;;;16.30;78.30;;;;;;5014041;28;20030;-75
2023/01/11 06:02:35;;;;;;;3.95;1.27;;;16.30;78.50;;;;;;5015107;28;20078;-75
2023/01/11 06:05:00;;;;;;;5.32;0.93;;;16.30;78.60;;;;;;5014056;28;20108;-75
2023/01/11 06:07:26;;;;;;;2.22;0.80;;;16.20;78.60;;;;;;5013681;28;20115;-75
2023/01/11 06:09:52;;;;;;;2.15;1.10;;;16.20;78.60;;;;;;5013828;28;20036;-75
2023/01/11 06:12:17;;;;;;;2.88;1.00;;;16.20;78.60;;;;;;5015033;28;20022;-75
2023/01/11 06:14:43;;;;;;;2.15;0.90;;;16.20;78.60;;;;;;5014887;28;20117;-75
2023/01/11 06:17:08;;;;;;;3.50;0.77;;;16.20;78.60;;;;;;5014850;28;20105;-74
2023/01/11 06:19:34;;;;;;;1.70;0.63;;;16.20;78.60;;;;;;5013572;28;20050;-74
2023/01/11 06:22:00;;;;;;;6.55;0.90;;;16.20;78.50;;;;;;5013605;28;20025;-75
2023/01/11 06:24:25;;;;;;;4.38;1.17;;;16.20;78.50;;;;;;5014600;28;20076;-74
2023/01/11 06:26:52;;;;;;;5.55;1.15;;;16.20;78.60;;;;;;5014677;28;20370;-74
2023/01/11 06:29:17;;;;;;;5.15;1.10;;;16.20;78.60;;;;;;5013556;28;20030;-74
2023/01/11 06:31:43;;;;;;;2.85;0.85;;;16.20;78.60;;;;;;5020448;28;20506;-74
2023/01/11 06:34:09;;;;;;;3.95;1.35;;;16.20;78.60;;;;;;5034414;28;20029;-74
2023/01/11 06:36:34;;;;;;;0.60;0.60;;;16.20;78.70;;;;;;5033091;28;20379;-74
2023/01/11 06:39:00;;;;;;;3.60;0.90;;;16.20;78.60;;;;;;5032128;28;20550;-75
2023/01/11 06:41:27;;;;;;;4.28;1.05;;;16.20;78.60;;;;;;5013119;28;20034;-75
2023/01/11 06:43:53;;;;;;;2.47;1.13;;;16.20;78.60;;;;;;5014459;28;20049;-75
2023/01/11 06:46:19;;;;;;;3.47;0.93;;;16.20;78.70;;;;;;5013202;28;20057;-75
2023/01/11 06:48:44;;;;;;;1.88;0.70;;;16.10;78.50;;;;;;5012997;28;20050;-75
2023/01/11 06:51:10;;;;;;;3.53;1.00;;;16.10;78.70;;;;;;5013127;28;20026;-75
2023/01/11 06:53:36;;;;;;;3.13;0.80;;;16.10;78.80;;;;;;5014151;28;20133;-74
2023/01/11 06:56:02;;;;;;;3.90;1.05;;;16.10;78.90;;;;;;5013040;28;20046;-75
2023/01/11 06:58:28;;;;;;;2.78;1.13;;;16.10;79.00;;;;;;5013043;28;20109;-74
2023/01/11 07:00:54;;;;;;;2.75;0.82;;;16.10;79.00;;;;;;5014016;28;20061;-75
2023/01/11 07:03:22;;;;;;;2.70;0.90;;;16.10;79.00;;;;;;5013878;28;20128;-74
2023/01/11 07:05:48;;;;;;;1.98;0.70;;;16.10;79.00;;;;;;5012187;28;20109;-74
2023/01/11 07:08:14;;;;;;;3.08;1.17;;;16.00;79.00;;;;;;5012690;28;20157;-75
2023/01/11 07:10:39;;;;;;;2.63;0.88;;;16.10;79.00;;;;;;4996350;28;20121;-75
2023/01/11 07:13:05;;;;;;;4.07;1.00;;;16.10;79.10;;;;;;5012776;28;20033;-74
2023/01/11 07:15:31;;;;;;;3.60;1.02;;;16.10;79.10;;;;;;5013688;28;20030;-75
2023/01/11 07:17:58;;;;;;;3.63;0.90;;;16.10;79.20;;;;;;5014115;28;20030;-75
2023/01/11 07:20:24;;;;;;;3.95;0.80;;;16.10;78.90;;;;;;5012324;28;20029;-75
2023/01/11 07:22:50;;;;;;;6.00;0.98;;;16.00;78.70;;;;;;5013785;28;20072;-75
2023/01/11 07:25:16;;;;;;;3.63;0.85;;;16.00;78.60;;;;;;5012519;28;20022;-75
2023/01/11 07:27:41;;;;;;;3.03;1.10;;;16.00;78.50;;;;;;5012369;28;20489;-75
2023/01/11 07:30:07;;;;;;;2.47;0.90;;;16.00;78.30;;;;;;5013576;28;20026;-75
2023/01/11 07:32:34;;;;;;;2.38;1.10;;;16.00;78.30;;;;;;5026194;28;20033;-75
2023/01/11 07:35:00;;;;;;;3.50;0.90;;;16.00;78.20;;;;;;5033143;28;20021;-75
2023/01/11 07:37:26;;;;;;;1.75;0.80;;;16.00;78.00;;;;;;5033309;28;20088;-75
2023/01/11 07:39:52;;;;;;;2.13;0.80;;;16.00;77.90;;;;;;5025195;28;20048;-75
2023/01/11 07:45:03;;;;;;;5.13;1.05;;;15.90;77.80;;;;;;5012282;28;20025;-75
2023/01/11 07:47:28;;;;;;;1.67;0.82;;;15.90;77.70;;;;;;5013201;28;20125;-75
2023/01/11 07:49:54;;;;;;;2.97;1.10;;;15.90;77.70;;;;;;5013037;28;20088;-75
2023/01/11 07:52:20;;;;;;;1.90;0.80;;;15.90;77.70;;;;;;5022244;28;20033;-73
2023/01/11 07:54:45;;;;;;;11.32;2.17;;;15.90;77.60;;;;;;5032810;28;20492;-73
2023/01/11 07:57:11;;;;;;;19.20;3.45;;;15.80;77.70;;;;;;5032845;28;20074;-73
2023/01/11 07:59:37;;;;;;;17.38;2.67;;;15.90;77.90;;;;;;5032728;28;20025;-73
2023/01/11 08:02:02;;;;;;;17.63;2.80;;;15.90;79.10;;;;;;5031236;28;20033;-73
2023/01/11 08:04:28;;;;;;;12.68;2.67;;;15.80;78.20;;;;;;5031468;28;20064;-73
2023/01/11 08:06:53;;;;;;;14.35;3.28;;;15.80;78.20;;;;;;5032368;28;20056;-73
2023/01/11 08:09:19;;;;;;;13.25;2.63;;;15.80;78.10;;;;;;5031339;28;20024;-73
2023/01/11 08:14:38;;;;;;;11.38;2.95;;;15.80;78.00;;;;;;5032633;28;20122;-73
2023/01/11 08:17:04;;;;;;;14.48;2.97;;;15.80;78.00;;;;;;5031721;28;20021;-73
2023/01/11 08:19:29;;;;;;;9.82;1.80;;;15.80;78.00;;;;;;5029958;28;20024;-73
2023/01/11 08:21:55;;;;;;;11.65;2.67;;;15.80;78.00;;;;;;5032473;28;20026;-73
2023/01/11 08:24:21;;;;;;;12.40;3.10;;;15.80;78.00;;;;;;5032427;28;20053;-73
2023/01/11 08:26:46;;;;;;;8.70;2.70;;;15.80;78.00;;;;;;5031240;28;20126;-73
2023/01/11 08:29:12;;;;;;;9.13;2.60;;;15.80;78.00;;;;;;5031345;28;20036;-73
2023/01/11 08:31:38;;;;;;;12.73;2.80;;;15.80;78.00;;;;;;5030969;28;20041;-73
2023/01/11 08:34:04;;;;;;;13.15;2.63;;;15.70;77.90;;;;;;5031954;28;20049;-73
2023/01/11 08:36:31;;;;;;;12.60;3.10;;;15.70;77.90;;;;;;5031319;28;20060;-73
2023/01/11 08:38:56;;;;;;;7.13;2.13;;;15.70;77.90;;;;;;5031962;28;20029;-73
2023/01/11 08:41:22;;;;;;;11.25;2.30;;;15.70;77.90;;;;;;5011362;28;20030;-73
2023/01/11 08:43:48;;;;;;;6.60;2.15;;;15.70;77.90;;;;;;5012324;28;20032;-73
2023/01/11 08:46:14;;;;;;;8.95;2.33;;;15.70;77.80;;;;;;5011491;28;20097;-73
2023/01/11 08:48:40;;;;;;;11.38;2.50;;;15.70;77.80;;;;;;5011147;28;20454;-73
2023/01/11 08:51:06;;;;;;;6.32;2.45;;;15.70;77.80;;;;;;5011370;28;20100;-73
2023/01/11 08:53:31;;;;;;;10.15;2.58;;;15.70;77.80;;;;;;5011142;28;20026;-73
2023/01/11 08:55:57;;;;;;;13.85;2.80;;;15.70;77.80;;;;;;5011212;28;20037;-73
2023/01/11 08:58:24;;;;;;;10.93;2.97;;;15.70;77.80;;;;;;5011275;28;20036;-73
2023/01/11 09:00:50;;;;;;;11.30;2.35;;;15.70;77.80;;;;;;5011055;28;20511;-73
2023/01/11 09:03:15;;;;;;;8.57;2.45;;;15.70;77.80;;;;;;5010766;28;20046;-73
2023/01/11 09:05:41;;;;;;;8.73;2.60;;;15.60;77.70;;;;;;5012158;28;20033;-73
2023/01/11 09:08:07;;;;;;;9.98;2.40;;;15.60;77.70;;;;;;5011006;28;20116;-73
2023/01/11 09:10:32;;;;;;;7.72;2.70;;;15.60;77.70;;;;;;5011198;28;20477;-73
2023/01/11 09:12:58;;;;;;;9.65;2.60;;;15.60;77.70;;;;;;5012057;28;20026;-73
2023/01/11 09:15:25;;;;;;;9.10;2.58;;;15.60;77.70;;;;;;5010970;28;20428;-73
2023/01/11 09:17:51;;;;;;;7.88;2.17;;;15.60;77.70;;;;;;5010872;28;20022;-73
2023/01/11 09:20:16;;;;;;;9.27;2.47;;;15.50;77.70;;;;;;5011918;28;20088;-73
2023/01/11 09:22:46;;;;;;;8.07;2.67;;;15.50;77.70;;;;;;5012253;28;20030;-73
2023/01/11 09:25:11;;;;;;;10.85;2.78;;;15.50;77.60;;;;;;5010961;28;20038;-73
2023/01/11 09:27:37;;;;;;;7.97;2.08;;;15.50;77.70;;;;;;5012443;28;20472;-73
2023/01/11 09:30:03;;;;;;;5.05;1.77;;;15.60;77.70;;;;;;5015437;28;20088;-73
2023/01/11 09:32:29;;;;;;;6.88;2.30;;;15.50;77.60;;;;;;5027783;28;20047;-73
2023/01/11 09:34:56;;;;;;;9.35;2.55;;;15.50;77.70;;;;;;5035413;28;20017;-74
2023/01/11 09:37:23;;;;;;;9.90;2.20;;;15.50;77.60;;;;;;5035452;28;20406;-73
2023/01/11 09:39:50;;;;;;;8.23;2.08;;;15.50;77.70;;;;;;5026772;28;20052;-73
2023/01/11 09:42:35;;;;;;;4.93;1.80;;;15.50;77.60;;;;;;5015526;28;20030;-73
2023/01/11 09:45:16;;;;;;;6.82;2.42;;;15.50;77.60;;;;;;5014021;28;20412;-73
2023/01/11 09:48:29;;;;;;;9.02;2.42;;;15.50;78.60;;;;;;5014125;28;20060;-73
2023/01/11 09:50:56;;;;;;;7.25;2.00;;;15.40;77.50;;;;;;4993423;28;20047;-73
2023/01/11 09:53:29;;;;;;;7.25;2.20;;;15.40;77.50;;;;;;4993543;28;20037;-73
2023/01/11 09:55:58;;;;;;;6.65;1.90;;;15.40;77.50;;;;;;4978187;28;20078;-73
2023/01/11 09:58:45;;;;;;;6.35;2.00;;;15.40;77.50;;;;;;4993444;28;20030;-73
2023/01/11 10:01:18;;;;;;;9.20;2.53;;;15.40;77.50;;;;;;4993167;28;20038;-73
2023/01/11 10:04:04;;;;;;;9.07;2.47;;;15.40;77.50;;;;;;4993143;28;20049;-73
2023/01/11 10:07:01;;;;;;;7.95;2.38;;;15.40;77.50;;;;;;4993252;28;20084;-73
2023/01/11 10:09:33;;;;;;;10.02;2.40;;;15.40;77.50;;;;;;4993288;28;20030;-73
2023/01/11 10:12:22;;;;;;;8.35;2.55;;;15.40;77.40;;;;;;4993312;28;20033;-73
2023/01/11 10:15:11;;;;;;;7.18;1.73;;;15.40;77.30;;;;;;4976754;28;20069;-73
2023/01/11 10:17:57;;;;;;;5.93;1.88;;;15.30;77.30;;;;;;4993177;28;20386;-73
2023/01/11 10:20:34;;;;;;;6.75;1.90;;;15.40;77.30;;;;;;4993123;28;20034;-73
2023/01/11 10:23:24;;;;;;;9.25;2.50;;;15.30;77.30;;;;;;4977082;28;20389;-73
2023/01/11 10:25:53;;;;;;;7.53;2.28;;;15.40;77.30;;;;;;4992490;28;20400;-73
2023/01/11 10:28:34;;;;;;;6.50;2.10;;;15.30;77.30;;;;;;4992720;28;20034;-73
2023/01/11 10:42:24;;;;;;;7.88;2.15;;;15.30;77.20;;;;;;5012632;28;20095;-73
2023/01/11 10:45:17;;;;;;;7.45;1.95;;;15.30;77.20;;;;;;5011899;28;20053;-73
2023/01/11 10:48:06;;;;;;;6.47;1.90;;;15.30;77.20;;;;;;5012195;28;20030;-73
2023/01/11 10:50:40;;;;;;;7.90;2.30;;;15.20;77.10;;;;;;4996404;28;20038;-73
2023/01/11 10:53:22;;;;;;;5.43;1.70;;;15.20;77.10;;;;;;4996311;28;20026;-73
2023/01/11 10:56:11;;;;;;;5.43;1.80;;;15.30;77.10;;;;;;4996557;28;20056;-73
2023/01/11 10:59:03;;;;;;;6.57;2.17;;;15.20;77.10;;;;;;5011715;28;20037;-73
2023/01/11 11:01:39;;;;;;;6.47;1.67;;;15.20;77.10;;;;;;4998124;28;20125;-73
2023/01/11 11:04:22;;;;;;;7.50;2.00;;;15.20;77.10;;;;;;4995152;28;20061;-73
2023/01/11 11:07:00;;;;;;;5.85;1.55;;;15.20;77.00;;;;;;5011797;28;20038;-73
2023/01/11 11:10:10;;;;;;;7.30;1.60;;;15.20;77.10;;;;;;4996203;28;20184;-73
2023/01/11 11:12:38;;;;;;;6.82;1.92;;;15.20;77.10;;;;;;4937211;29;20472;-73
2023/01/11 11:15:42;;;;;;;7.25;1.95;;;15.20;77.10;;;;;;4921934;28;20047;-73
2023/01/11 11:18:08;;;;;;;5.80;1.60;;;15.20;77.10;;;;;;4972493;28;20047;-73
2023/01/11 11:20:34;;;;;;;8.00;1.70;;;15.20;77.10;;;;;;4972704;28;20023;-73
2023/01/11 11:22:59;;;;;;;5.97;1.83;;;15.20;77.20;;;;;;4972385;28;20045;-73
2023/01/11 11:25:36;;;;;;;5.82;1.75;;;15.10;77.10;;;;;;4956465;28;20023;-73
2023/01/11 11:28:05;;;;;;;5.05;1.55;;;15.10;77.10;;;;;;4956318;28;20503;-73
2023/01/11 11:30:41;;;;;;;5.45;1.42;;;15.20;77.20;;;;;;4956538;28;20110;-73
2023/01/11 11:33:31;;;;;;;6.75;1.90;;;15.10;77.10;;;;;;4990445;28;20468;-73
2023/01/11 11:36:07;;;;;;;4.95;1.55;;;15.10;77.10;;;;;;4992985;28;20216;-73
2023/01/11 11:39:01;;;;;;;3.65;1.20;;;15.10;77.20;;;;;;4976644;28;20093;-73
2023/01/11 11:41:27;;;;;;;5.13;1.60;;;15.10;77.20;;;;;;4958413;28;20130;-73
2023/01/11 11:43:52;;;;;;;4.18;1.80;;;15.10;77.20;;;;;;4972235;28;20030;-73
2023/01/11 11:46:26;;;;;;;6.78;1.63;;;15.10;78.30;;;;;;4955865;28;20031;-73
2023/01/11 11:49:16;;;;;;;6.20;1.77;;;15.00;77.30;;;;;;5003941;28;20408;-73
2023/01/11 11:51:43;;;;;;;2.75;1.33;;;15.10;77.20;;;;;;5012180;28;20028;-73
2023/01/11 11:54:25;;;;;;;6.22;1.63;;;15.00;77.30;;;;;;5011839;28;20177;-73
2023/01/11 11:56:51;;;;;;;4.63;1.53;;;15.10;77.20;;;;;;5011924;28;20493;-73
2023/01/11 11:59:20;;;;;;;4.07;1.67;;;15.00;77.20;;;;;;5011934;28;20032;-73
2023/01/11 12:01:48;;;;;;;6.15;1.80;;;15.00;77.20;;;;;;5012882;28;20494;-73
2023/01/11 12:04:18;;;;;;;5.85;1.50;;;15.00;77.30;;;;;;5011627;28;20099;-73
2023/01/11 12:06:52;;;;;;;4.00;1.58;;;15.00;77.10;;;;;;5011697;28;20026;-73
2023/01/11 12:09:29;;;;;;;3.03;1.23;;;15.00;77.30;;;;;;5011796;28;20021;-73
2023/01/11 12:11:54;;;;;;;3.95;1.17;;;15.00;77.20;;;;;;5011485;28;20032;-73
2023/01/11 12:14:26;;;;;;;5.75;1.80;;;15.00;77.30;;;;;;5011684;28;20121;-73
2023/01/11 12:16:52;;;;;;;5.65;1.38;;;15.00;77.30;;;;;;5011817;28;20056;-73
2023/01/11 12:19:33;;;;;;;5.07;1.58;;;15.00;77.30;;;;;;5012822;28;20026;-73
2023/01/11 12:22:29;;;;;;;4.38;1.60;;;15.00;77.30;;;;;;5012705;28;20025;-73
2023/01/11 12:25:13;;;;;;;4.20;1.20;;;14.90;77.20;;;;;;5011832;28;20040;-73
2023/01/11 12:27:45;;;;;;;6.70;1.52;;;14.90;77.20;;;;;;5011656;28;20084;-73
2023/01/11 12:30:26;;;;;;;5.50;1.75;;;14.90;77.20;;;;;;5011491;28;20036;-73
2023/01/11 12:33:21;;;;;;;5.90;1.58;;;14.90;77.30;;;;;;5027786;28;20147;-73
2023/01/11 12:36:04;;;;;;;6.00;1.58;;;14.90;77.30;;;;;;5063841;28;20029;-73
2023/01/11 12:38:36;;;;;;;5.50;1.58;;;14.90;77.40;;;;;;5014760;28;20483;-73
2023/01/11 12:41:20;;;;;;;4.93;1.52;;;14.90;77.30;;;;;;5014674;28;20496;-73
2023/01/11 12:43:48;;;;;;;3.08;1.30;;;14.90;77.30;;;;;;5012584;28;20106;-73
2023/01/11 12:46:20;;;;;;;8.65;2.20;;;14.90;77.40;;;;;;5012364;28;20498;-73
2023/01/11 12:48:58;;;;;;;5.28;1.70;;;14.90;77.40;;;;;;5011467;28;20491;-73
2023/01/11 12:51:42;;;;;;;5.05;1.50;;;14.90;77.50;;;;;;5011381;28;20026;-73
2023/01/11 12:54:08;;;;;;;12.05;2.45;;;14.90;77.40;;;;;;5011022;28;20030;-73
2023/01/11 12:56:56;;;;;;;7.35;1.55;;;14.90;77.50;;;;;;5012678;28;20033;-73
2023/01/11 12:59:27;;;;;;;4.05;1.35;;;14.90;77.40;;;;;;5011220;28;20026;-73
2023/01/11 13:01:53;;;;;;;3.65;1.23;;;14.90;77.50;;;;;;5012238;28;20025;-73
2023/01/11 13:04:30;;;;;;;4.60;1.20;;;14.90;77.40;;;;;;5014562;28;20160;-73
2023/01/11 13:07:16;;;;;;;3.00;1.27;;;14.90;77.50;;;;;;5016175;28;20022;-73
2023/01/11 13:10:19;;;;;;;4.13;1.50;;;14.90;77.50;;;;;;5014794;28;20030;-73
2023/01/11 13:12:57;;;;;;;5.63;1.08;;;14.80;77.50;;;;;;5001067;28;20033;-73
2023/01/11 13:15:42;;;;;;;4.28;1.50;;;14.80;77.50;;;;;;5015035;28;20088;-73
2023/01/11 13:18:17;;;;;;;7.35;1.58;;;14.80;77.50;;;;;;5016175;28;20049;-73
2023/01/11 13:20:56;;;;;;;5.20;1.40;;;14.80;77.60;;;;;;5015886;28;20032;-73
2023/01/11 13:23:47;;;;;;;3.92;1.25;;;14.80;77.60;;;;;;5014534;28;20376;-73
2023/01/11 13:26:20;;;;;;;5.85;1.65;;;14.80;77.50;;;;;;5014544;28;20014;-73
2023/01/11 13:28:49;;;;;;;3.72;1.27;;;14.80;77.60;;;;;;5014796;28;20435;-73
2023/01/11 13:31:15;;;;;;;2.33;1.00;;;14.80;77.60;;;;;;5016600;28;20583;-73
2023/01/11 13:33:44;;;;;;;5.03;1.23;;;14.80;77.60;;;;;;5034249;28;20112;-73
2023/01/11 13:36:13;;;;;;;2.40;1.10;;;14.80;77.60;;;;;;5034131;28;20021;-73